createdAt,value
2018-09-05T00:00:49.832Z,87.90
2018-09-05T00:03:18.100Z,88.00
2018-09-05T00:05:46.360Z,88.10
2018-09-05T00:08:14.660Z,88.20
2018-09-05T00:10:42.900Z,88.30
2018-09-05T00:13:11.174Z,88.60
2018-09-05T00:15:39.476Z,88.90
2018-09-05T00:18:07.740Z,89.10
2018-09-05T00:20:35.997Z,89.20
2018-09-05T00:23:04.300Z,89.00
2018-09-05T00:25:32.694Z,88.80
2018-09-05T00:28:01.004Z,89.00
2018-09-05T00:30:29.274Z,89.30
2018-09-05T00:32:57.580Z,89.50
2018-09-05T00:35:25.879Z,90.10
2018-09-05T00:37:54.169Z,89.30
2018-09-05T00:40:22.431Z,89.20
2018-09-05T00:42:50.799Z,89.10
2018-09-05T00:45:19.094Z,89.30
2018-09-05T00:47:47.396Z,89.50
2018-09-05T00:50:15.683Z,89.50
2018-09-05T00:52:43.936Z,89.50
2018-09-05T00:55:12.296Z,89.50
2018-09-05T00:57:40.597Z,89.50
2018-09-05T01:00:09.058Z,89.50
2018-09-05T01:02:37.354Z,89.40
2018-09-05T01:05:05.666Z,89.10
2018-09-05T01:07:33.944Z,89.20
2018-09-05T01:10:02.247Z,89.40
2018-09-05T01:12:30.568Z,88.90
2018-09-05T01:14:58.852Z,89.60
2018-09-05T01:17:27.165Z,89.80
2018-09-05T01:19:55.461Z,89.60
2018-09-05T01:22:23.784Z,89.70
2018-09-05T01:24:52.026Z,89.50
2018-09-05T01:27:20.372Z,89.40
2018-09-05T01:29:48.680Z,89.60
2018-09-05T01:32:16.919Z,89.50
2018-09-05T01:34:45.219Z,89.70
2018-09-05T01:37:13.496Z,89.80
2018-09-05T01:39:41.754Z,89.90
2018-09-05T01:42:10.686Z,90.00
2018-09-05T01:44:39.548Z,90.00
2018-09-05T01:47:07.780Z,90.00
2018-09-05T01:49:36.084Z,90.00
2018-09-05T01:52:04.362Z,90.00
2018-09-05T01:54:32.660Z,90.00
2018-09-05T01:57:00.947Z,90.00
2018-09-05T01:59:29.177Z,90.00
2018-09-05T02:01:57.463Z,90.00
2018-09-05T02:04:25.708Z,90.00
2018-09-05T02:06:53.950Z,89.90
2018-09-05T02:09:22.287Z,89.70
2018-09-05T02:11:50.510Z,89.60
2018-09-05T02:14:18.823Z,89.60
2018-09-05T02:16:47.137Z,89.70
2018-09-05T02:19:15.444Z,90.00
2018-09-05T02:21:45.099Z,89.90
2018-09-05T02:24:13.347Z,90.00
2018-09-05T02:26:41.665Z,90.00
2018-09-05T02:29:09.972Z,90.10
2018-09-05T02:31:38.203Z,90.10
2018-09-05T02:34:06.563Z,90.20
2018-09-05T02:36:34.880Z,90.20
2018-09-05T02:39:03.403Z,90.20
2018-09-05T02:41:31.666Z,90.10
2018-09-05T02:44:05.283Z,90.10
2018-09-05T02:46:33.583Z,90.10
2018-09-05T02:49:01.891Z,90.10
2018-09-05T02:51:30.125Z,90.10
2018-09-05T02:53:58.456Z,90.10
2018-09-05T02:56:26.781Z,90.20
2018-09-05T02:58:55.131Z,90.40
2018-09-05T03:01:23.401Z,90.30
2018-09-05T03:03:51.657Z,90.40
2018-09-05T03:06:19.971Z,90.50
2018-09-05T03:08:48.281Z,90.40
2018-09-05T03:11:16.660Z,90.30
2018-09-05T03:13:44.987Z,90.30
2018-09-05T03:16:13.247Z,90.20
2018-09-05T03:18:41.512Z,90.10
2018-09-05T03:21:09.783Z,90.00
2018-09-05T03:23:38.206Z,90.10
2018-09-05T03:26:13.203Z,90.30
2018-09-05T03:28:41.498Z,90.40
2018-09-05T03:31:09.793Z,90.50
2018-09-05T03:33:38.119Z,90.70
2018-09-05T03:36:06.396Z,90.80
2018-09-05T03:38:34.649Z,90.80
2018-09-05T03:41:03.066Z,91.20
2018-09-05T03:43:31.324Z,91.30
2018-09-05T03:45:59.613Z,91.30
2018-09-05T03:48:27.893Z,91.30
2018-09-05T03:50:56.590Z,91.30
2018-09-05T03:53:26.023Z,91.30
2018-09-05T03:55:54.911Z,91.30
2018-09-05T03:58:23.407Z,91.30
2018-09-05T04:00:51.728Z,91.20
2018-09-05T04:03:20.032Z,91.30
2018-09-05T04:05:48.283Z,91.30
2018-09-05T04:08:16.542Z,91.30
2018-09-05T04:10:44.859Z,91.20
2018-09-05T04:13:13.120Z,91.30
2018-09-05T04:15:41.415Z,91.30
2018-09-05T04:18:09.915Z,91.30
2018-09-05T04:20:38.200Z,91.30
2018-09-05T04:23:06.740Z,91.50
2018-09-05T04:25:35.129Z,91.40
2018-09-05T04:28:03.423Z,91.40
2018-09-05T04:30:31.708Z,91.50
2018-09-05T04:32:59.987Z,91.70
2018-09-05T04:35:28.327Z,91.70
2018-09-05T04:37:56.604Z,91.70
2018-09-05T04:40:24.912Z,91.80
2018-09-05T04:42:53.251Z,92.20
2018-09-05T04:45:21.666Z,92.30
2018-09-05T04:47:49.963Z,92.90
2018-09-05T04:50:18.340Z,92.60
2018-09-05T04:52:46.640Z,92.70
2018-09-05T04:55:21.532Z,92.50
2018-09-05T04:57:49.799Z,92.20
2018-09-05T05:00:18.056Z,92.10
2018-09-05T05:02:46.411Z,92.10
2018-09-05T05:05:15.116Z,92.20
2018-09-05T05:07:43.476Z,92.40
2018-09-05T05:10:11.885Z,92.90
2018-09-05T05:12:40.214Z,92.60
2018-09-05T05:15:08.540Z,92.50
2018-09-05T05:17:36.896Z,92.50
2018-09-05T05:20:05.216Z,92.40
2018-09-05T05:22:33.564Z,92.40
2018-09-05T05:25:01.835Z,92.40
2018-09-05T05:27:30.127Z,92.40
2018-09-05T05:29:58.429Z,92.40
2018-09-05T05:32:26.774Z,92.30
2018-09-05T05:34:55.210Z,92.30
2018-09-05T05:37:23.524Z,92.70
2018-09-05T05:39:51.840Z,92.40
2018-09-05T05:42:20.140Z,92.40
2018-09-05T05:44:48.368Z,92.40
2018-09-05T05:47:16.634Z,92.40
2018-09-05T05:49:44.943Z,92.50
2018-09-05T05:52:13.346Z,92.80
2018-09-05T05:54:41.572Z,92.80
2018-09-05T05:57:09.887Z,92.80
2018-09-05T05:59:38.283Z,92.90
2018-09-05T06:02:06.567Z,93.10
2018-09-05T06:04:35.168Z,93.10
2018-09-05T06:07:03.455Z,93.20
2018-09-05T06:09:31.850Z,93.10
2018-09-05T06:16:02.550Z,93.10
2018-09-05T06:18:50.212Z,93.10
2018-09-05T06:21:18.440Z,93.10
2018-09-05T06:23:46.720Z,93.10
2018-09-05T06:26:14.976Z,93.10
2018-09-05T06:28:43.275Z,93.30
2018-09-05T06:31:11.625Z,93.50
2018-09-05T06:33:39.873Z,93.50
2018-09-05T06:36:08.194Z,93.40
2018-09-05T06:38:36.524Z,93.50
2018-09-05T06:41:05.084Z,93.50
2018-09-05T06:43:33.388Z,93.60
2018-09-05T06:46:01.671Z,93.60
2018-09-05T06:48:30.001Z,94.00
2018-09-05T06:51:06.240Z,93.80
2018-09-05T06:53:35.728Z,93.80
2018-09-05T06:56:04.313Z,93.70
2018-09-05T06:58:32.759Z,93.70
2018-09-05T07:01:01.032Z,93.70
2018-09-05T07:03:29.435Z,93.80
2018-09-05T07:05:57.865Z,93.70
2018-09-05T07:08:26.107Z,93.50
2018-09-05T07:10:54.423Z,93.70
2018-09-05T07:14:16.070Z,94.00
2018-09-05T07:16:46.559Z,93.90
2018-09-05T07:19:15.033Z,93.80
2018-09-05T07:21:45.471Z,93.60
2018-09-05T07:24:13.784Z,93.70
2018-09-05T07:26:42.138Z,93.90
2018-09-05T07:29:10.452Z,94.30
2018-09-05T07:31:38.728Z,94.00
2018-09-05T07:34:07.022Z,94.00
2018-09-05T07:36:35.344Z,94.20
2018-09-05T07:39:04.344Z,94.50
2018-09-05T07:41:32.625Z,94.50
2018-09-05T07:44:00.864Z,94.10
2018-09-05T07:46:29.134Z,93.80
2018-09-05T07:48:57.550Z,93.80
2018-09-05T07:51:25.851Z,93.80
2018-09-05T07:54:00.768Z,93.70
2018-09-05T07:56:29.091Z,93.70
2018-09-05T07:58:57.517Z,94.00
2018-09-05T08:01:25.796Z,93.30
2018-09-05T08:03:54.210Z,93.50
2018-09-05T08:06:22.492Z,93.50
2018-09-05T08:08:50.811Z,93.20
2018-09-05T08:11:19.104Z,92.70
2018-09-05T08:13:47.415Z,92.80
2018-09-05T08:16:15.694Z,92.40
2018-09-05T08:18:44.036Z,92.40
2018-09-05T08:21:12.353Z,92.10
2018-09-05T08:23:40.639Z,92.10
2018-09-05T08:26:08.959Z,91.80
2018-09-05T08:28:37.262Z,92.10
2018-09-05T08:31:05.859Z,91.40
2018-09-05T08:33:34.095Z,91.60
2018-09-05T08:36:02.670Z,91.70
2018-09-05T08:38:30.836Z,91.60
2018-09-05T08:41:03.488Z,91.20
2018-09-05T08:43:32.104Z,91.10
2018-09-05T08:46:00.513Z,91.20
2018-09-05T08:48:28.973Z,91.10
2018-09-05T08:50:57.141Z,91.00
2018-09-05T08:53:25.440Z,90.50
2018-09-05T08:55:53.770Z,90.30
2018-09-05T08:58:22.083Z,90.80
2018-09-05T09:00:50.348Z,90.30
2018-09-05T09:03:18.628Z,90.30
2018-09-05T09:05:47.064Z,90.40
2018-09-05T09:08:15.358Z,90.20
2018-09-05T09:10:43.655Z,90.40
2018-09-05T09:13:11.972Z,90.60
2018-09-05T09:15:40.272Z,90.70
2018-09-05T09:18:08.668Z,90.00
2018-09-05T09:20:36.991Z,89.00
2018-09-05T09:23:05.306Z,89.30
2018-09-05T09:25:33.592Z,90.80
2018-09-05T09:28:01.907Z,90.70
2018-09-05T09:30:30.156Z,90.30
2018-09-05T09:32:58.466Z,89.80
2018-09-05T09:35:26.839Z,86.80
2018-09-05T09:37:55.143Z,82.40
2018-09-05T09:40:23.559Z,78.80
2018-09-05T09:42:51.913Z,75.50
2018-09-05T09:45:20.281Z,71.60
2018-09-05T09:47:48.599Z,69.60
2018-09-05T09:50:17.098Z,66.10
2018-09-05T09:52:45.376Z,63.90
2018-09-05T09:55:13.779Z,63.60
2018-09-05T09:57:42.069Z,61.40
2018-09-05T10:00:11.350Z,59.10
2018-09-05T10:02:45.309Z,58.80
2018-09-05T10:05:19.211Z,58.50
2018-09-05T10:07:52.895Z,58.00
2018-09-05T10:10:26.710Z,55.70
2018-09-05T10:13:00.616Z,56.80
2018-09-05T10:15:34.355Z,55.70
2018-09-05T10:18:08.078Z,56.60
2018-09-05T10:20:36.362Z,55.80
2018-09-05T10:23:04.700Z,57.60
2018-09-05T10:25:33.003Z,56.60
2018-09-05T10:28:01.239Z,54.80
2018-09-05T10:30:29.511Z,52.80
2018-09-05T10:32:57.793Z,51.90
2018-09-05T10:35:26.115Z,52.10
2018-09-05T10:37:54.443Z,50.00
2018-09-05T10:40:22.723Z,48.40
2018-09-05T10:42:51.031Z,46.80
2018-09-05T10:45:19.355Z,46.30
2018-09-05T10:47:47.660Z,45.30
2018-09-05T10:50:16.312Z,45.50
2018-09-05T10:52:44.531Z,44.00
2018-09-05T10:55:12.916Z,42.30
2018-09-05T10:57:41.244Z,42.40
2018-09-05T11:00:09.593Z,41.40
2018-09-05T11:02:37.884Z,39.80
2018-09-05T11:05:06.256Z,37.90
2018-09-05T11:07:34.528Z,36.60
2018-09-05T11:10:02.874Z,36.30
2018-09-05T11:12:31.164Z,35.90
2018-09-05T11:15:38.396Z,34.70
2018-09-05T11:18:06.699Z,34.10
2018-09-05T11:20:35.195Z,33.00
2018-09-05T11:23:03.499Z,32.70
2018-09-05T11:25:31.820Z,31.40
2018-09-05T11:28:00.123Z,30.10
2018-09-05T11:30:28.473Z,29.60
2018-09-05T11:32:56.738Z,29.70
2018-09-05T11:35:25.003Z,29.10
2018-09-05T11:37:53.272Z,28.90
2018-09-05T11:40:21.651Z,28.40
2018-09-05T11:42:49.939Z,27.90
2018-09-05T11:45:18.252Z,27.90
2018-09-05T11:47:46.582Z,27.40
2018-09-05T11:50:15.276Z,25.40
2018-09-05T11:52:50.304Z,26.40
2018-09-05T11:55:18.608Z,25.50
2018-09-05T11:57:46.887Z,26.60
2018-09-05T12:00:15.379Z,26.00
2018-09-05T12:02:43.719Z,25.60
2018-09-05T12:05:12.057Z,25.70
2018-09-05T12:07:40.370Z,25.90
2018-09-05T12:10:08.716Z,25.30
2018-09-05T12:12:37.033Z,25.10
2018-09-05T12:15:48.701Z,25.60
2018-09-05T12:18:16.998Z,24.10
2018-09-05T12:20:45.301Z,23.80
2018-09-05T12:23:13.580Z,24.10
2018-09-05T12:25:42.022Z,24.70
2018-09-05T12:28:10.404Z,24.60
2018-09-05T12:30:38.686Z,24.20
2018-09-05T12:33:06.956Z,24.50
2018-09-05T12:35:35.267Z,25.30
2018-09-05T12:38:03.575Z,25.90
2018-09-05T12:40:31.897Z,26.40
2018-09-05T12:43:00.224Z,26.20
2018-09-05T12:45:28.535Z,25.20
2018-09-05T12:47:56.854Z,25.20
2018-09-05T12:50:25.168Z,25.60
2018-09-05T12:52:53.608Z,24.90
2018-09-05T12:55:21.904Z,24.30
2018-09-05T12:57:50.242Z,24.40
2018-09-05T13:00:18.864Z,23.50
2018-09-05T13:02:47.168Z,23.80
2018-09-05T13:05:15.608Z,24.00
2018-09-05T13:07:43.911Z,24.50
2018-09-05T13:10:12.228Z,23.50
2018-09-05T13:12:40.551Z,23.30
2018-09-05T13:18:27.816Z,23.40
2018-09-05T13:20:56.159Z,22.10
2018-09-05T13:23:24.743Z,22.10
2018-09-05T13:25:53.164Z,21.40
2018-09-05T13:28:21.436Z,21.90
2018-09-05T13:30:49.715Z,21.80
2018-09-05T13:33:17.976Z,22.70
2018-09-05T13:35:46.384Z,22.60
2018-09-05T13:38:14.706Z,22.40
2018-09-05T13:40:43.053Z,22.30
2018-09-05T13:43:11.356Z,22.20
2018-09-05T13:45:39.731Z,22.30
2018-09-05T13:48:08.063Z,22.20
2018-09-05T13:50:36.615Z,23.00
2018-09-05T13:53:05.201Z,23.10
2018-09-05T13:55:33.493Z,23.10
2018-09-05T13:58:01.824Z,22.60
2018-09-05T14:00:30.129Z,22.80
2018-09-05T14:02:58.439Z,22.00
2018-09-05T14:05:26.720Z,22.00
2018-09-05T14:07:55.067Z,22.00
2018-09-05T14:10:23.325Z,22.30
2018-09-05T14:12:51.688Z,22.70
2018-09-05T14:18:38.150Z,22.20
2018-09-05T14:21:06.431Z,22.00
2018-09-05T14:23:34.793Z,21.40
2018-09-05T14:26:03.127Z,21.80
2018-09-05T14:32:34.457Z,21.60
2018-09-05T14:38:32.088Z,21.60
2018-09-05T14:41:00.409Z,20.60
2018-09-05T14:43:28.670Z,21.00
2018-09-05T14:45:56.991Z,20.60
2018-09-05T14:48:25.299Z,20.80
2018-09-05T14:50:53.572Z,20.60
2018-09-05T14:53:21.844Z,20.90
2018-09-05T14:55:50.064Z,20.90
2018-09-05T14:58:18.387Z,20.80
2018-09-05T15:00:46.677Z,21.20
2018-09-05T15:03:14.991Z,20.50
2018-09-05T15:05:43.326Z,20.50
2018-09-05T15:08:11.675Z,20.60
2018-09-05T15:10:40.052Z,20.40
2018-09-05T15:13:08.357Z,21.20
2018-09-05T15:16:25.781Z,21.50
2018-09-05T15:18:54.095Z,21.50
2018-09-05T15:21:22.414Z,20.90
2018-09-05T15:23:50.725Z,20.90
2018-09-05T15:26:19.110Z,20.70
2018-09-05T15:28:47.508Z,20.60
2018-09-05T15:31:15.765Z,20.10
2018-09-05T15:33:44.074Z,20.20
2018-09-05T15:36:12.367Z,20.30
2018-09-05T15:38:40.703Z,20.90
2018-09-05T15:41:08.937Z,21.40
2018-09-05T15:43:37.244Z,21.20
2018-09-05T15:46:05.623Z,21.20
2018-09-05T15:48:33.919Z,21.10
2018-09-05T15:51:02.184Z,21.80
2018-09-05T15:53:30.524Z,22.00
2018-09-05T15:55:58.819Z,22.30
2018-09-05T15:58:27.239Z,22.00
2018-09-05T16:00:55.783Z,23.00
2018-09-05T16:03:24.690Z,23.40
2018-09-05T16:05:53.073Z,24.00
2018-09-05T16:08:21.391Z,24.00
2018-09-05T16:10:49.682Z,24.50
2018-09-05T16:13:17.981Z,25.00
2018-09-05T16:16:39.282Z,25.50
2018-09-05T16:19:07.585Z,25.80
2018-09-05T16:21:35.907Z,26.30
2018-09-05T16:24:04.223Z,26.60
2018-09-05T16:26:32.599Z,27.70
2018-09-05T16:29:01.081Z,28.30
2018-09-05T16:31:29.383Z,29.00
2018-09-05T16:33:57.730Z,29.20
2018-09-05T16:36:26.080Z,29.70
2018-09-05T16:38:54.359Z,30.00
2018-09-05T16:41:22.628Z,30.20
2018-09-05T16:43:50.916Z,30.90
2018-09-05T16:46:25.772Z,31.30
2018-09-05T16:48:54.134Z,32.10
2018-09-05T16:51:22.455Z,32.70
2018-09-05T16:53:50.709Z,33.70
2018-09-05T16:56:19.074Z,34.80
2018-09-05T16:58:47.378Z,35.50
2018-09-05T17:01:15.683Z,36.30
2018-09-05T17:03:43.984Z,36.90
2018-09-05T17:06:12.262Z,37.80
2018-09-05T17:08:40.595Z,38.50
2018-09-05T17:11:16.543Z,38.80
2018-09-05T17:13:44.818Z,39.40
2018-09-05T17:16:49.683Z,40.60
2018-09-05T17:19:18.025Z,40.30
2018-09-05T17:21:47.120Z,40.40
2018-09-05T17:24:15.467Z,40.80
2018-09-05T17:26:43.859Z,41.10
2018-09-05T17:29:12.164Z,41.20
2018-09-05T17:31:40.479Z,41.50
2018-09-05T17:34:08.903Z,42.10
2018-09-05T17:36:37.199Z,42.60
2018-09-05T17:39:08.291Z,43.00
2018-09-05T17:41:36.633Z,43.70
2018-09-05T17:44:05.028Z,44.40
2018-09-05T17:46:33.534Z,44.70
2018-09-05T17:49:02.034Z,45.00
2018-09-05T17:51:30.504Z,44.90
2018-09-05T17:53:59.700Z,45.80
2018-09-05T17:56:28.481Z,45.70
2018-09-05T17:58:57.112Z,46.20
2018-09-05T18:01:26.329Z,46.60
2018-09-05T18:03:54.789Z,46.70
2018-09-05T18:06:23.743Z,46.90
2018-09-05T18:08:52.661Z,46.90
2018-09-05T18:11:21.932Z,47.10
2018-09-05T18:13:51.112Z,47.50
2018-09-05T18:16:59.350Z,47.80
2018-09-05T18:19:28.379Z,48.00
2018-09-05T18:21:57.407Z,48.00
2018-09-05T18:24:26.599Z,48.10
2018-09-05T18:26:55.854Z,48.80
2018-09-05T18:29:24.804Z,48.70
2018-09-05T18:31:53.868Z,49.20
2018-09-05T18:34:22.964Z,49.40
2018-09-05T18:36:52.372Z,49.60
2018-09-05T18:39:21.568Z,49.80
2018-09-05T18:41:52.034Z,50.00
2018-09-05T18:44:21.631Z,50.20
2018-09-05T18:46:51.511Z,50.30
2018-09-05T18:49:21.083Z,50.40
2018-09-05T18:51:52.539Z,51.10
2018-09-05T18:54:21.655Z,50.60
2018-09-05T18:56:51.873Z,50.60
2018-09-05T18:59:21.108Z,50.70
2018-09-05T19:01:51.681Z,50.80
2018-09-05T19:04:21.115Z,50.90
2018-09-05T19:06:51.558Z,50.90
2018-09-05T19:09:20.911Z,50.50
2018-09-05T19:11:51.707Z,50.70
2018-09-05T19:14:41.982Z,50.90
2018-09-05T19:17:16.044Z,51.20
2018-09-05T19:19:45.201Z,51.40
2018-09-05T19:22:14.538Z,51.80
2018-09-05T19:24:43.650Z,51.90
2018-09-05T19:27:12.765Z,52.90
2018-09-05T19:33:35.919Z,52.90
2018-09-05T19:36:25.221Z,53.20
2018-09-05T19:39:07.584Z,53.30
2018-09-05T19:42:06.561Z,53.50
2018-09-05T19:44:45.990Z,53.40
2018-09-05T19:50:37.667Z,53.60
2018-09-05T19:53:13.686Z,53.40
2018-09-05T19:55:47.098Z,53.60
2018-09-05T20:01:03.036Z,53.60
2018-09-05T20:03:32.206Z,53.80
2018-09-05T20:06:01.302Z,54.30
2018-09-05T20:08:30.375Z,55.40
2018-09-05T20:10:59.455Z,54.50
2018-09-05T20:13:28.613Z,54.50
2018-09-05T20:19:19.391Z,54.80
2018-09-05T20:21:50.030Z,54.80
2018-09-05T20:24:19.284Z,55.10
2018-09-05T20:27:39.289Z,55.20
2018-09-05T20:30:08.494Z,55.30
2018-09-05T20:32:37.512Z,55.60
2018-09-05T20:35:06.606Z,55.70
2018-09-05T20:37:35.618Z,56.00
2018-09-05T20:40:04.667Z,56.50
2018-09-05T20:42:33.695Z,56.70
2018-09-05T20:45:03.269Z,56.50
2018-09-05T20:47:32.319Z,56.70
2018-09-05T20:50:01.357Z,56.70
2018-09-05T20:52:30.420Z,56.80
2018-09-05T20:54:59.493Z,56.90
2018-09-05T20:57:28.598Z,56.80
2018-09-05T20:59:57.628Z,56.80
2018-09-05T21:02:26.733Z,57.10
2018-09-05T21:04:55.850Z,57.10
2018-09-05T21:07:25.107Z,57.40
2018-09-05T21:09:54.203Z,57.40
2018-09-05T21:12:23.164Z,57.50
2018-09-05T21:15:33.730Z,57.40
2018-09-05T21:18:02.755Z,57.60
2018-09-05T21:20:31.727Z,57.50
2018-09-05T21:23:00.464Z,57.50
2018-09-05T21:25:29.677Z,57.40
2018-09-05T21:27:58.689Z,57.30
2018-09-05T21:30:27.182Z,56.70
2018-09-05T21:32:56.169Z,56.70
2018-09-05T21:35:24.857Z,57.10
2018-09-05T21:37:53.237Z,56.90
2018-09-05T21:40:21.540Z,56.60
2018-09-05T21:42:49.792Z,55.90
2018-09-05T21:45:18.875Z,55.50
2018-09-05T21:47:47.151Z,55.60
2018-09-05T21:50:15.981Z,55.70
2018-09-05T21:52:44.318Z,55.10
2018-09-05T21:55:12.647Z,56.10
2018-09-05T21:57:40.936Z,55.00
2018-09-05T22:00:10.360Z,54.60
2018-09-05T22:02:38.704Z,55.50
2018-09-05T22:05:07.136Z,55.80
2018-09-05T22:07:35.527Z,55.90
2018-09-05T22:10:03.918Z,56.00
2018-09-05T22:12:32.214Z,56.80
2018-09-05T22:15:00.520Z,57.00
2018-09-05T22:17:28.871Z,56.50
2018-09-05T22:19:57.164Z,56.10
2018-09-05T22:22:25.463Z,56.00
2018-09-05T22:24:53.809Z,56.20
2018-09-05T22:27:22.099Z,56.20
2018-09-05T22:29:50.381Z,56.30
2018-09-05T22:32:18.752Z,56.20
2018-09-05T22:34:46.995Z,56.00
2018-09-05T22:37:15.265Z,55.90
2018-09-05T22:39:43.538Z,56.20
2018-09-05T22:42:12.836Z,55.80
2018-09-05T22:44:52.884Z,56.10
2018-09-05T22:47:32.217Z,56.20
2018-09-05T22:51:13.826Z,56.10
2018-09-05T22:58:21.959Z,56.60
2018-09-05T23:01:01.072Z,57.20
2018-09-05T23:04:08.180Z,57.80
2018-09-05T23:06:49.767Z,57.90
2018-09-05T23:10:29.460Z,58.00
2018-09-05T23:13:08.704Z,57.90
2018-09-05T23:15:47.907Z,58.00
2018-09-05T23:18:27.216Z,57.80
2018-09-05T23:21:06.454Z,58.10
2018-09-05T23:23:45.774Z,58.30
2018-09-05T23:26:14.089Z,58.80
2018-09-05T23:28:42.332Z,58.20
2018-09-05T23:31:10.575Z,59.10
2018-09-05T23:33:38.815Z,58.40
2018-09-05T23:36:07.114Z,58.30
2018-09-05T23:38:35.429Z,58.30
2018-09-05T23:41:03.844Z,58.30
2018-09-05T23:43:32.120Z,58.30
2018-09-05T23:46:00.495Z,58.20
2018-09-05T23:48:28.787Z,58.20
2018-09-05T23:51:03.608Z,58.10
2018-09-05T23:53:31.915Z,58.20
2018-09-05T23:56:00.302Z,58.30
2018-09-05T23:58:28.629Z,58.40
